createdAt,value
2018-09-02T00:00:03.094Z,83.42
2018-09-02T00:02:30.343Z,84.54
2018-09-02T00:04:57.494Z,84.13
2018-09-02T00:07:24.615Z,84.52
2018-09-02T00:09:51.820Z,84.52
2018-09-02T00:12:19.180Z,83.25
2018-09-02T00:14:46.453Z,82.91
2018-09-02T00:17:13.566Z,83.09
2018-09-02T00:19:40.738Z,81.24
2018-09-02T00:22:07.926Z,80.33
2018-09-02T00:24:35.070Z,80.83
2018-09-02T00:27:02.369Z,80.51
2018-09-02T00:29:29.476Z,79.79
2018-09-02T00:31:57.201Z,79.39
2018-09-02T00:34:24.454Z,79.62
2018-09-02T00:36:52.699Z,80.47
2018-09-02T00:39:19.913Z,80.25
2018-09-02T00:41:47.080Z,79.22
2018-09-02T00:44:14.188Z,80.02
2018-09-02T00:46:41.495Z,79.91
2018-09-02T00:49:08.716Z,80.51
2018-09-02T00:51:35.918Z,80.86
2018-09-02T00:54:03.044Z,80.99
2018-09-02T00:56:30.258Z,81.73
2018-09-02T00:58:57.432Z,81.22
2018-09-02T01:01:24.604Z,81.79
2018-09-02T01:03:51.846Z,82.71
2018-09-02T01:06:18.971Z,82.68
2018-09-02T01:08:46.094Z,83.08
2018-09-02T01:11:13.365Z,83.62
2018-09-02T01:13:41.333Z,83.61
2018-09-02T01:16:08.536Z,84.19
2018-09-02T01:18:35.722Z,84.64
2018-09-02T01:21:02.873Z,84.88
2018-09-02T01:23:30.063Z,84.48
2018-09-02T01:25:57.220Z,84.85
2018-09-02T01:28:24.407Z,85.11
2018-09-02T01:30:51.543Z,85.67
2018-09-02T01:33:18.711Z,86.17
2018-09-02T01:35:45.903Z,86.38
2018-09-02T01:38:13.434Z,86.30
2018-09-02T01:40:40.714Z,86.23
2018-09-02T01:43:07.854Z,87.32
2018-09-02T01:45:35.001Z,87.13
2018-09-02T01:48:03.011Z,87.33
2018-09-02T01:50:41.452Z,87.41
2018-09-02T01:53:08.695Z,87.59
2018-09-02T01:55:35.820Z,87.41
2018-09-02T01:58:03.280Z,88.47
2018-09-02T02:00:30.519Z,88.37
2018-09-02T02:02:57.779Z,87.90
2018-09-02T02:05:27.535Z,88.03
2018-09-02T02:07:55.927Z,87.83
2018-09-02T02:10:23.127Z,86.28
2018-09-02T02:12:50.220Z,87.41
2018-09-02T02:15:17.465Z,87.64
2018-09-02T02:17:44.666Z,87.60
2018-09-02T02:20:11.809Z,87.66
2018-09-02T02:22:39.101Z,87.79
2018-09-02T02:25:06.241Z,87.24
2018-09-02T02:27:33.389Z,87.63
2018-09-02T02:30:00.617Z,88.14
2018-09-02T02:32:27.989Z,87.10
2018-09-02T02:34:55.219Z,87.67
2018-09-02T02:37:22.359Z,87.46
2018-09-02T02:39:49.506Z,86.72
2018-09-02T02:42:16.628Z,86.95
2018-09-02T02:44:43.820Z,87.06
2018-09-02T02:47:10.994Z,86.95
2018-09-02T02:49:38.102Z,86.93
2018-09-02T02:52:05.405Z,88.03
2018-09-02T02:54:32.657Z,87.45
2018-09-02T02:56:59.800Z,87.89
2018-09-02T02:59:27.140Z,88.21
2018-09-02T03:01:54.299Z,87.69
2018-09-02T03:04:31.199Z,88.14
2018-09-02T03:06:58.358Z,87.60
2018-09-02T03:09:25.478Z,87.65
2018-09-02T03:11:53.479Z,88.12
2018-09-02T03:14:20.593Z,87.72
2018-09-02T03:16:47.775Z,87.21
2018-09-02T03:19:14.925Z,88.05
2018-09-02T03:21:42.025Z,88.83
2018-09-02T03:24:09.485Z,88.94
2018-09-02T03:26:36.678Z,87.84
2018-09-02T03:29:03.901Z,88.72
2018-09-02T03:31:31.070Z,88.75
2018-09-02T03:33:58.346Z,88.62
2018-09-02T03:36:25.578Z,89.18
2018-09-02T03:38:52.691Z,89.22
2018-09-02T03:41:19.964Z,89.10
2018-09-02T03:43:47.248Z,88.73
2018-09-02T03:46:14.359Z,89.21
2018-09-02T03:48:41.687Z,89.10
2018-09-02T03:51:08.785Z,89.57
2018-09-02T03:53:36.084Z,88.45
2018-09-02T03:56:03.253Z,89.31
2018-09-02T03:58:30.488Z,88.89
2018-09-02T04:00:57.656Z,88.87
2018-09-02T04:03:24.863Z,89.31
2018-09-02T04:05:52.024Z,89.74
2018-09-02T04:08:19.267Z,90.04
2018-09-02T04:10:47.108Z,90.12
2018-09-02T04:13:14.271Z,90.89
2018-09-02T04:15:42.473Z,91.08
2018-09-02T04:18:09.716Z,91.19
2018-09-02T04:20:36.938Z,92.14
2018-09-02T04:23:05.083Z,92.08
2018-09-02T04:25:32.939Z,93.25
2018-09-02T04:28:00.264Z,92.76
2018-09-02T04:30:27.884Z,93.14
2018-09-02T04:32:55.067Z,94.10
2018-09-02T04:35:23.687Z,94.71
2018-09-02T04:37:50.900Z,93.77
2018-09-02T04:40:18.310Z,93.36
2018-09-02T04:42:45.474Z,93.87
2018-09-02T04:45:12.981Z,94.00
2018-09-02T04:47:40.185Z,93.24
2018-09-02T04:50:10.511Z,92.86
2018-09-02T04:52:37.679Z,92.17
2018-09-02T04:55:04.997Z,91.63
2018-09-02T04:57:32.339Z,91.90
2018-09-02T04:59:59.475Z,91.46
2018-09-02T05:02:26.723Z,90.80
2018-09-02T05:04:53.821Z,91.52
2018-09-02T05:07:21.088Z,90.42
2018-09-02T05:09:48.300Z,90.20
2018-09-02T05:12:15.485Z,90.06
2018-09-02T05:14:42.800Z,89.27
2018-09-02T05:17:10.028Z,89.37
2018-09-02T05:19:37.295Z,89.65
2018-09-02T05:22:04.652Z,89.37
2018-09-02T05:24:31.837Z,88.41
2018-09-02T05:26:59.137Z,87.46
2018-09-02T05:29:26.261Z,88.13
2018-09-02T05:31:53.505Z,88.16
2018-09-02T05:34:20.635Z,88.06
2018-09-02T05:36:47.791Z,88.18
2018-09-02T05:39:15.124Z,88.23
2018-09-02T05:41:42.263Z,87.39
2018-09-02T05:44:09.509Z,87.48
2018-09-02T05:46:36.727Z,87.89
2018-09-02T05:49:04.668Z,88.65
2018-09-02T05:51:32.690Z,88.43
2018-09-02T05:53:59.953Z,87.39
2018-09-02T05:56:27.126Z,87.50
2018-09-02T05:58:54.601Z,88.39
2018-09-02T06:01:21.846Z,87.36
2018-09-02T06:03:49.104Z,87.14
2018-09-02T06:06:16.276Z,87.85
2018-09-02T06:08:43.515Z,87.43
2018-09-02T06:11:10.671Z,87.21
2018-09-02T06:13:37.796Z,86.43
2018-09-02T06:16:05.389Z,85.77
2018-09-02T06:18:34.164Z,87.00
2018-09-02T06:21:01.401Z,86.63
2018-09-02T06:23:28.588Z,86.36
2018-09-02T06:25:55.710Z,87.44
2018-09-02T06:28:22.928Z,86.50
2018-09-02T06:30:50.106Z,87.41
2018-09-02T06:33:17.372Z,86.27
2018-09-02T06:35:44.670Z,85.64
2018-09-02T06:38:12.183Z,85.87
2018-09-02T06:40:39.387Z,85.68
2018-09-02T06:43:06.524Z,85.38
2018-09-02T06:45:33.856Z,85.36
2018-09-02T06:48:00.959Z,85.42
2018-09-02T06:50:28.084Z,85.38
2018-09-02T06:52:55.310Z,84.92
2018-09-02T06:55:22.908Z,83.61
2018-09-02T06:57:50.260Z,83.42
2018-09-02T07:00:18.337Z,84.21
2018-09-02T07:02:45.444Z,83.53
2018-09-02T07:05:12.641Z,83.81
2018-09-02T07:07:39.791Z,83.95
2018-09-02T07:10:09.319Z,84.03
2018-09-02T07:12:36.477Z,83.24
2018-09-02T07:15:03.681Z,84.33
2018-09-02T07:17:30.901Z,83.85
2018-09-02T07:19:59.014Z,82.89
2018-09-02T07:22:26.331Z,84.01
2018-09-02T07:24:53.491Z,81.47
2018-09-02T07:27:21.061Z,80.28
2018-09-02T07:29:48.401Z,80.68
2018-09-02T07:32:15.497Z,80.50
2018-09-02T07:34:42.699Z,79.91
2018-09-02T07:37:09.886Z,81.16
2018-09-02T07:39:37.029Z,80.87
2018-09-02T07:42:04.266Z,81.26
2018-09-02T07:44:31.449Z,80.89
2018-09-02T07:46:58.620Z,81.23
2018-09-02T07:49:25.743Z,81.35
2018-09-02T07:51:52.933Z,80.31
2018-09-02T07:54:20.174Z,81.84
2018-09-02T07:56:48.311Z,82.59
2018-09-02T07:59:15.590Z,82.52
2018-09-02T08:01:42.724Z,82.86
2018-09-02T08:04:09.870Z,82.99
2018-09-02T08:06:37.141Z,83.98
2018-09-02T08:09:06.925Z,83.56
2018-09-02T08:11:34.124Z,85.18
2018-09-02T08:14:01.264Z,85.07
2018-09-02T08:16:28.412Z,84.79
2018-09-02T08:18:55.659Z,83.94
2018-09-02T08:21:22.864Z,83.77
2018-09-02T08:23:50.058Z,83.15
2018-09-02T08:26:17.195Z,83.53
2018-09-02T08:28:44.397Z,84.78
2018-09-02T08:31:11.650Z,84.32
2018-09-02T08:33:42.631Z,85.11
2018-09-02T08:36:09.835Z,85.14
2018-09-02T08:38:37.017Z,86.35
2018-09-02T08:41:04.305Z,87.88
2018-09-02T08:43:31.663Z,88.36
2018-09-02T08:45:58.962Z,89.59
2018-09-02T08:48:26.152Z,90.66
2018-09-02T08:50:53.324Z,89.76
2018-09-02T08:53:20.460Z,88.61
2018-09-02T08:55:47.662Z,89.33
2018-09-02T08:58:14.961Z,89.23
2018-09-02T09:00:43.221Z,89.35
2018-09-02T09:03:10.494Z,87.66
2018-09-02T09:05:37.667Z,88.21
2018-09-02T09:08:05.038Z,86.63
2018-09-02T09:10:32.163Z,86.58
2018-09-02T09:12:59.401Z,88.08
2018-09-02T09:15:26.496Z,87.85
2018-09-02T09:17:53.619Z,85.47
2018-09-02T09:20:20.877Z,88.54
2018-09-02T09:22:48.245Z,85.35
2018-09-02T09:25:28.345Z,84.61
2018-09-02T09:27:58.698Z,83.79
2018-09-02T09:30:25.968Z,84.36
2018-09-02T09:32:53.124Z,84.67
2018-09-02T09:35:20.272Z,84.44
2018-09-02T09:37:47.543Z,87.15
2018-09-02T09:40:15.126Z,88.51
2018-09-02T09:42:42.337Z,87.90
2018-09-02T09:45:09.484Z,89.35
2018-09-02T09:47:36.654Z,90.49
2018-09-02T09:50:04.048Z,91.26
2018-09-02T09:52:31.179Z,90.07
2018-09-02T09:54:58.441Z,91.01
2018-09-02T09:57:25.563Z,90.02
2018-09-02T09:59:52.743Z,91.08
2018-09-02T10:02:19.977Z,89.17
2018-09-02T10:04:47.127Z,87.33
2018-09-02T10:07:14.368Z,86.60
2018-09-02T10:09:41.583Z,88.70
2018-09-02T10:12:08.736Z,87.64
2018-09-02T10:14:39.464Z,87.39
2018-09-02T10:17:06.694Z,85.67
2018-09-02T10:19:33.879Z,85.31
2018-09-02T10:22:02.180Z,86.35
2018-09-02T10:24:29.358Z,84.92
2018-09-02T10:26:56.549Z,85.08
2018-09-02T10:29:23.686Z,86.83
2018-09-02T10:31:51.111Z,86.80
2018-09-02T10:34:18.347Z,87.06
2018-09-02T10:36:45.536Z,85.36
2018-09-02T10:39:12.781Z,87.45
2018-09-02T10:41:39.943Z,85.10
2018-09-02T10:44:07.173Z,83.31
2018-09-02T10:46:34.393Z,82.99
2018-09-02T10:49:01.689Z,83.81
2018-09-02T10:51:28.870Z,83.73
2018-09-02T10:53:56.056Z,82.60
2018-09-02T10:56:23.269Z,81.95
2018-09-02T10:58:50.403Z,81.32
2018-09-02T11:01:17.620Z,80.80
2018-09-02T11:03:44.800Z,81.05
2018-09-02T11:06:11.923Z,80.97
2018-09-02T11:08:39.294Z,80.99
2018-09-02T11:11:06.482Z,82.75
2018-09-02T11:13:33.701Z,81.61
2018-09-02T11:16:00.949Z,80.76
2018-09-02T11:18:28.786Z,81.54
2018-09-02T11:20:55.910Z,80.33
2018-09-02T11:23:23.196Z,80.87
2018-09-02T11:25:50.332Z,79.82
2018-09-02T11:28:17.473Z,79.45
2018-09-02T11:30:44.667Z,78.03
2018-09-02T11:33:11.844Z,75.66
2018-09-02T11:35:38.953Z,73.81
2018-09-02T11:38:06.233Z,71.72
2018-09-02T11:40:33.450Z,71.42
2018-09-02T11:43:00.729Z,69.29
2018-09-02T11:45:27.971Z,71.32
2018-09-02T11:47:55.069Z,71.85
2018-09-02T11:50:22.243Z,72.83
2018-09-02T11:52:49.988Z,72.47
2018-09-02T11:55:17.178Z,72.94
2018-09-02T11:57:44.421Z,73.39
2018-09-02T12:00:13.859Z,75.48
2018-09-02T12:02:41.493Z,75.17
2018-09-02T12:05:08.753Z,76.65
2018-09-02T12:07:36.007Z,75.07
2018-09-02T12:10:03.428Z,76.46
2018-09-02T12:12:30.960Z,77.22
2018-09-02T12:14:58.235Z,79.23
2018-09-02T12:17:25.313Z,77.49
2018-09-02T12:19:52.637Z,77.67
2018-09-02T12:22:19.892Z,79.25
2018-09-02T12:24:47.026Z,74.64
2018-09-02T12:27:14.451Z,70.96
2018-09-02T12:29:41.624Z,69.61
2018-09-02T12:32:08.962Z,65.46
2018-09-02T12:34:36.275Z,66.72
2018-09-02T12:37:03.659Z,66.46
2018-09-02T12:39:30.797Z,65.24
2018-09-02T12:41:57.951Z,66.34
2018-09-02T12:44:25.140Z,66.91
2018-09-02T12:46:52.376Z,68.74
2018-09-02T12:49:19.560Z,66.94
2018-09-02T12:51:47.168Z,67.17
2018-09-02T12:54:14.520Z,67.85
2018-09-02T12:56:41.710Z,66.94
2018-09-02T12:59:09.335Z,68.07
2018-09-02T13:01:36.512Z,67.43
2018-09-02T13:04:03.860Z,66.45
2018-09-02T13:06:31.030Z,67.81
2018-09-02T13:08:58.206Z,67.12
2018-09-02T13:11:25.440Z,68.02
2018-09-02T13:13:52.617Z,66.53
2018-09-02T13:16:19.765Z,68.07
2018-09-02T13:18:47.062Z,64.83
2018-09-02T13:21:14.361Z,63.92
2018-09-02T13:23:41.722Z,62.82
2018-09-02T13:26:08.913Z,64.00
2018-09-02T13:28:36.169Z,62.88
2018-09-02T13:31:03.446Z,64.53
2018-09-02T13:33:30.633Z,63.34
2018-09-02T13:35:57.953Z,61.16
2018-09-02T13:38:25.056Z,62.81
2018-09-02T13:40:52.175Z,60.11
2018-09-02T13:43:19.390Z,61.94
2018-09-02T13:45:46.592Z,63.48
2018-09-02T13:48:13.883Z,61.80
2018-09-02T13:50:41.070Z,61.93
2018-09-02T13:53:08.635Z,61.19
2018-09-02T13:55:35.780Z,62.87
2018-09-02T13:58:02.963Z,61.40
2018-09-02T14:00:30.247Z,60.54
2018-09-02T14:02:57.381Z,62.67
2018-09-02T14:05:24.554Z,63.80
2018-09-02T14:07:51.715Z,59.61
2018-09-02T14:10:19.070Z,60.45
2018-09-02T14:12:46.347Z,60.55
2018-09-02T14:15:13.478Z,59.06
2018-09-02T14:17:40.680Z,57.83
2018-09-02T14:20:07.857Z,60.69
2018-09-02T14:22:35.050Z,62.57
2018-09-02T14:25:02.310Z,59.97
2018-09-02T14:27:29.501Z,59.70
2018-09-02T14:29:56.661Z,60.25
2018-09-02T14:32:23.788Z,62.98
2018-09-02T14:34:50.968Z,61.04
2018-09-02T14:37:18.176Z,60.68
2018-09-02T14:39:45.295Z,62.27
2018-09-02T14:42:12.515Z,62.39
2018-09-02T14:44:39.640Z,59.73
2018-09-02T14:47:06.878Z,63.48
2018-09-02T14:49:34.130Z,60.27
2018-09-02T14:52:01.393Z,61.31
2018-09-02T14:54:28.522Z,60.58
2018-09-02T14:56:55.721Z,60.44
2018-09-02T14:59:22.849Z,60.41
2018-09-02T15:01:50.355Z,60.23
2018-09-02T15:04:17.547Z,59.10
2018-09-02T15:06:44.643Z,59.70
2018-09-02T15:09:11.817Z,60.31
2018-09-02T15:11:39.019Z,61.34
2018-09-02T15:14:06.396Z,59.14
2018-09-02T15:16:33.573Z,60.22
2018-09-02T15:19:01.098Z,58.52
2018-09-02T15:21:28.306Z,60.12
2018-09-02T15:23:55.428Z,62.18
2018-09-02T15:26:22.686Z,61.44
2018-09-02T15:28:49.903Z,61.07
2018-09-02T15:31:17.053Z,58.19
2018-09-02T15:33:44.368Z,56.86
2018-09-02T15:36:11.487Z,57.95
2018-09-02T15:38:38.725Z,56.30
2018-09-02T15:41:05.919Z,57.12
2018-09-02T15:43:33.196Z,56.69
2018-09-02T15:46:00.288Z,58.84
2018-09-02T15:48:27.442Z,58.78
2018-09-02T15:50:54.665Z,60.72
2018-09-02T15:53:21.779Z,60.98
2018-09-02T15:55:48.915Z,60.08
2018-09-02T15:58:16.037Z,59.74
2018-09-02T16:00:43.217Z,61.36
2018-09-02T16:03:10.587Z,59.86
2018-09-02T16:05:37.735Z,60.08
2018-09-02T16:08:05.014Z,59.31
2018-09-02T16:10:32.203Z,59.88
2018-09-02T16:12:59.337Z,59.97
2018-09-02T16:15:26.551Z,60.62
2018-09-02T16:17:53.761Z,59.63
2018-09-02T16:20:20.891Z,59.30
2018-09-02T16:22:48.031Z,60.82
2018-09-02T16:25:15.289Z,61.86
2018-09-02T16:27:43.245Z,60.79
2018-09-02T16:30:10.458Z,61.40
2018-09-02T16:32:37.736Z,59.62
2018-09-02T16:35:04.980Z,60.68
2018-09-02T16:37:32.404Z,61.29
2018-09-02T16:39:59.950Z,59.71
2018-09-02T16:42:27.869Z,61.85
2018-09-02T16:44:55.073Z,60.73
2018-09-02T16:47:22.293Z,60.63
2018-09-02T16:49:49.425Z,60.69
2018-09-02T16:52:16.641Z,61.59
2018-09-02T16:54:43.967Z,62.53
2018-09-02T16:57:11.136Z,62.53
2018-09-02T16:59:38.347Z,63.20
2018-09-02T17:02:05.722Z,61.81
2018-09-02T17:04:34.750Z,61.60
2018-09-02T17:07:01.931Z,62.29
2018-09-02T17:09:29.301Z,61.52
2018-09-02T17:11:56.531Z,61.64
2018-09-02T17:14:23.582Z,63.09
2018-09-02T17:16:50.930Z,64.50
2018-09-02T17:19:22.091Z,63.72
2018-09-02T17:21:49.246Z,64.13
2018-09-02T17:24:16.425Z,64.86
2018-09-02T17:26:47.941Z,64.97
2018-09-02T17:29:15.182Z,64.09
2018-09-02T17:31:42.395Z,65.02
2018-09-02T17:34:09.508Z,66.50
2018-09-02T17:36:36.661Z,65.92
2018-09-02T17:39:06.392Z,66.28
2018-09-02T17:41:33.698Z,66.81
2018-09-02T17:44:00.834Z,66.50
2018-09-02T17:46:28.025Z,66.49
2018-09-02T17:48:55.190Z,66.42
2018-09-02T17:51:22.338Z,66.83
2018-09-02T17:53:50.153Z,67.20
2018-09-02T17:56:19.370Z,66.67
2018-09-02T17:58:46.896Z,67.48
2018-09-02T18:01:14.281Z,68.42
2018-09-02T18:03:41.464Z,67.33
2018-09-02T18:06:08.622Z,67.96
2018-09-02T18:08:35.797Z,68.82
2018-09-02T18:11:02.972Z,68.34
2018-09-02T18:13:30.095Z,67.34
2018-09-02T18:15:57.337Z,68.68
2018-09-02T18:18:24.510Z,69.04
2018-09-02T18:20:51.634Z,69.61
2018-09-02T18:23:18.878Z,69.10
2018-09-02T18:25:46.171Z,69.14
2018-09-02T18:28:16.042Z,70.00
2018-09-02T18:30:43.211Z,70.44
2018-09-02T18:33:10.351Z,70.66
2018-09-02T18:35:37.494Z,69.34
2018-09-02T18:38:04.792Z,70.24
2018-09-02T18:40:31.917Z,70.19
2018-09-02T18:42:59.137Z,70.67
2018-09-02T18:45:26.526Z,71.69
2018-09-02T18:47:53.560Z,72.18
2018-09-02T18:50:20.713Z,72.18
2018-09-02T18:52:47.934Z,72.66
2018-09-02T18:55:15.124Z,71.94
2018-09-02T18:57:42.521Z,71.55
2018-09-02T19:00:10.046Z,72.51
2018-09-02T19:02:37.417Z,72.84
2018-09-02T19:05:04.824Z,73.58
2018-09-02T19:07:32.136Z,73.71
2018-09-02T19:09:59.704Z,74.37
2018-09-02T19:12:26.839Z,74.80
2018-09-02T19:14:55.171Z,74.21
2018-09-02T19:17:22.497Z,74.42
2018-09-02T19:19:50.211Z,74.86
2018-09-02T19:22:17.923Z,75.56
2018-09-02T19:24:50.581Z,75.31
2018-09-02T19:27:18.164Z,75.08
2018-09-02T19:29:45.956Z,75.83
2018-09-02T19:32:13.073Z,75.89
2018-09-02T19:34:40.706Z,76.36
2018-09-02T19:37:07.924Z,76.78
2018-09-02T19:39:35.506Z,77.16
2018-09-02T19:42:02.648Z,77.23
2018-09-02T19:44:29.796Z,77.43
2018-09-02T19:46:57.053Z,77.63
2018-09-02T19:49:24.251Z,78.31
2018-09-02T19:51:51.572Z,76.71
2018-09-02T19:54:20.792Z,77.97
2018-09-02T19:56:48.265Z,78.41
2018-09-02T19:59:15.410Z,77.97
2018-09-02T20:01:43.869Z,79.08
2018-09-02T20:04:11.040Z,78.65
2018-09-02T20:06:39.125Z,78.87
2018-09-02T20:09:08.988Z,78.67
2018-09-02T20:11:36.368Z,78.84
2018-09-02T20:14:03.508Z,78.29
2018-09-02T20:16:30.792Z,78.90
2018-09-02T20:18:58.003Z,78.41
2018-09-02T20:21:25.207Z,79.15
2018-09-02T20:23:52.380Z,78.18
2018-09-02T20:26:19.616Z,78.78
2018-09-02T20:28:46.723Z,78.26
2018-09-02T20:31:13.833Z,79.23
2018-09-02T20:33:41.139Z,78.96
2018-09-02T20:36:08.291Z,78.47
2018-09-02T20:38:35.453Z,78.42
2018-09-02T20:41:02.619Z,78.28
2018-09-02T20:43:29.777Z,78.53
2018-09-02T20:45:56.976Z,79.10
2018-09-02T20:48:24.165Z,78.36
2018-09-02T20:50:51.279Z,78.47
2018-09-02T20:53:18.388Z,79.28
2018-09-02T20:55:45.565Z,79.56
2018-09-02T20:58:12.803Z,79.13
2018-09-02T21:00:39.968Z,80.20
2018-09-02T21:03:07.174Z,80.01
2018-09-02T21:05:34.361Z,81.19
2018-09-02T21:08:01.491Z,80.59
2018-09-02T21:10:28.755Z,81.28
2018-09-02T21:12:55.872Z,82.49
2018-09-02T21:15:23.229Z,81.42
2018-09-02T21:17:50.481Z,81.90
2018-09-02T21:20:17.610Z,82.36
2018-09-02T21:22:44.933Z,82.61
2018-09-02T21:25:12.088Z,82.83
2018-09-02T21:27:39.239Z,83.73
2018-09-02T21:30:06.424Z,83.87
2018-09-02T21:32:33.905Z,84.16
2018-09-02T21:35:01.131Z,84.06
2018-09-02T21:37:28.243Z,84.62
2018-09-02T21:39:55.712Z,85.13
2018-09-02T21:42:22.900Z,84.97
2018-09-02T21:44:50.018Z,85.12
2018-09-02T21:47:17.396Z,85.94
2018-09-02T21:49:44.740Z,86.15
2018-09-02T21:52:11.899Z,86.16
2018-09-02T21:54:39.057Z,87.06
2018-09-02T21:57:06.255Z,87.22
2018-09-02T21:59:33.886Z,86.82
2018-09-02T22:02:01.055Z,87.40
2018-09-02T22:04:28.173Z,87.17
2018-09-02T22:06:55.319Z,87.66
2018-09-02T22:09:22.546Z,87.85
2018-09-02T22:11:49.757Z,87.72
2018-09-02T22:14:16.855Z,87.93
2018-09-02T22:16:44.081Z,88.21
2018-09-02T22:19:11.200Z,87.68
2018-09-02T22:21:38.929Z,88.22
2018-09-02T22:24:06.189Z,87.96
2018-09-02T22:26:33.556Z,88.27
2018-09-02T22:29:01.261Z,88.37
2018-09-02T22:31:28.436Z,88.93
2018-09-02T22:33:56.286Z,88.43
2018-09-02T22:36:23.488Z,88.46
2018-09-02T22:38:50.685Z,88.30
2018-09-02T22:41:17.882Z,88.31
2018-09-02T22:43:45.215Z,88.44
2018-09-02T22:46:13.077Z,88.31
2018-09-02T22:48:41.445Z,88.15
2018-09-02T22:51:08.577Z,88.47
2018-09-02T22:53:35.768Z,89.17
2018-09-02T22:56:03.049Z,89.43
2018-09-02T22:58:30.298Z,89.55
2018-09-02T23:00:57.582Z,88.71
2018-09-02T23:03:24.695Z,88.44
2018-09-02T23:05:51.988Z,85.61
2018-09-02T23:08:19.181Z,85.95
2018-09-02T23:10:46.351Z,84.69
2018-09-02T23:13:13.558Z,84.65
2018-09-02T23:15:40.723Z,83.25
2018-09-02T23:18:07.832Z,83.26
2018-09-02T23:20:35.559Z,81.74
2018-09-02T23:23:02.861Z,81.02
2018-09-02T23:25:30.257Z,80.71
2018-09-02T23:27:57.873Z,80.45
2018-09-02T23:30:25.048Z,80.50
2018-09-02T23:32:52.164Z,79.09
2018-09-02T23:35:19.335Z,78.18
2018-09-02T23:37:46.584Z,78.28
2018-09-02T23:40:13.719Z,77.76
2018-09-02T23:42:42.188Z,77.27
2018-09-02T23:45:09.392Z,76.36
2018-09-02T23:47:37.136Z,77.37
2018-09-02T23:50:04.476Z,77.52
2018-09-02T23:52:31.693Z,76.52
2018-09-02T23:54:58.803Z,76.48
2018-09-02T23:57:25.902Z,75.98
2018-09-02T23:59:53.099Z,75.56
